This is the latest recevied weather packets stored in our database for station/object CE3RCJ-14. If no packets are shown the sender has not sent any weather packets the latest 10 day(s).
| Time | Temp. | Humidity | Pressure | Rain* | Wind** | Luminosity | Snow |
|---|---|---|---|---|---|---|---|
| 1777735689 | 17.22° C | 47% | 1016.8 hPa | - | - | - | - |
| 1777735383 | 17.22° C | 48% | 1016.9 hPa | - | - | - | - |
| 1777732397 | 15° C | 51% | 1017.9 hPa | - | - | - | - |
| 1777732098 | 15° C | 51% | 1018 hPa | - | - | - | - |
| 1777731782 | 15° C | 51% | 1018 hPa | - | - | - | - |
| 1777731482 | 14.44° C | 52% | 1018 hPa | - | - | - | - |
| 1777731182 | 14.44° C | 52% | 1018.1 hPa | - | - | - | - |
| 1777730282 | 13.89° C | 53% | 1018.5 hPa | - | - | - | - |
| 1777727013 | 11.67° C | 57% | 1019.4 hPa | - | - | - | - |
| 1777726681 | 11.67° C | 58% | 1019.4 hPa | - | - | - | - |
| 1777726082 | 11.11° C | 59% | 1019.5 hPa | - | - | - | - |
| 1777725797 | 11.11° C | 59% | 1019.5 hPa | - | - | - | - |
| 1777724898 | 10.56° C | 60% | 1019.6 hPa | - | - | - | - |
| 1777723982 | 10.56° C | 61% | 1019.7 hPa | - | - | - | - |
| 1777723082 | 10° C | 62% | 1019.8 hPa | - | - | - | - |
| 1777722782 | 10° C | 62% | 1019.8 hPa | - | - | - | - |
| 1777721013 | 10.56° C | 62% | 1019.5 hPa | - | - | - | - |
| 1777720682 | 10° C | 62% | 1019.5 hPa | - | - | - | - |
| 1777718884 | 10° C | 63% | 1019.3 hPa | - | - | - | - |
| 1777716481 | 10.56° C | 63% | 1019.3 hPa | - | - | - | - |
| 1777715582 | 10.56° C | 63% | 1019.3 hPa | - | - | - | - |
| 1777713781 | 10.56° C | 63% | 1019.6 hPa | - | - | - | - |
| 1777712882 | 10.56° C | 63% | 1019.8 hPa | - | - | - | - |
| 1777710782 | 10.56° C | 64% | 1020.1 hPa | - | - | - | - |
| 1777708982 | 11.11° C | 64% | 1020.2 hPa | - | - | - | - |
* Rain since midnight (hover to see other rain measurements)
** Current wind speed in m/s (hover to see current wind gust speed)